Погода Николаево-Отрадноена 2 недели

Ростовская область, Россия

20 мая-02 июня
  • 20мая
    Сегодня
    +14°
    +23°
    Ясно и безоблачно
    ВремяПогодаТемператураВлажностьДавлениеВетер, м/сВероятность осадков
    00:00Ясно и безоблачно+16°C83 %761 мм0.9 м/с2 %
    03:00Практически безоблачно+15°C94 %761 мм0.6 м/с2 %
    06:00Ясно и безоблачно+14°C89 %762 мм1.9 м/с2 %
    09:00Ясно и безоблачно+19°C77 %762 мм2.0 м/с2 %
    12:00Ясно и безоблачно+22°C55 %762 мм2.2 м/с2 %
    15:00Ясно и безоблачно+23°C48 %762 мм1.6 м/с2 %
    18:00Ясно и безоблачно+21°C48 %762 мм1.1 м/с2 %
    21:00Ясно и безоблачно+19°C56 %763 мм1.1 м/с2 %
  • 21мая
    Вторник
    +15°
    +25°
    Ясно и безоблачно
    ВремяПогодаТемператураВлажностьДавлениеВетер, м/сВероятность осадков
    00:00Ясно и безоблачно+17°C65 %763 мм1.0 м/с2 %
    03:00Ясно и безоблачно+15°C87 %763 мм1.0 м/с2 %
    06:00Ясно и безоблачно+15°C82 %764 мм2.0 м/с2 %
    09:00Ясно и безоблачно+20°C63 %764 мм1.9 м/с2 %
    12:00Ясно и безоблачно+24°C46 %764 мм2.5 м/с2 %
    15:00Ясно и безоблачно+25°C42 %763 мм1.8 м/с2 %
    18:00Ясно и безоблачно+23°C43 %763 мм1.1 м/с2 %
    21:00Ясно и безоблачно+19°C64 %763 мм1.4 м/с2 %
  • 22мая
    Среда
    +15°
    +26°
    Ясно и безоблачно
    ВремяПогодаТемператураВлажностьДавлениеВетер, м/сВероятность осадков
    00:00Ясно и безоблачно+17°C79 %763 мм1.7 м/с2 %
    03:00Ясно и безоблачно+16°C73 %763 мм1.7 м/с2 %
    06:00Ясно и безоблачно+16°C69 %763 мм2.8 м/с2 %
    09:00Ясно и безоблачно+21°C54 %763 мм3.0 м/с2 %
    12:00Ясно и безоблачно+25°C39 %763 мм3.6 м/с2 %
    15:00Ясно и безоблачно+26°C35 %762 мм2.8 м/с2 %
    18:00Ясно и безоблачно+24°C44 %760 мм2.0 м/с2 %
    21:00Ясно и безоблачно+20°C61 %761 мм2.4 м/с2 %
  • 23мая
    Четверг
    +16°
    +27°
    Ясно и безоблачно
    ВремяПогодаТемператураВлажностьДавлениеВетер, м/сВероятность осадков
    00:00Ясно и безоблачно+18°C67 %761 мм1.8 м/с2 %
    03:00Ясно и безоблачно+16°C67 %761 мм1.5 м/с2 %
    06:00Ясно и безоблачно+16°C67 %761 мм3.1 м/с2 %
    09:00Ясно и безоблачно+21°C59 %761 мм3.3 м/с2 %
    12:00Ясно и безоблачно+25°C45 %761 мм4.9 м/с2 %
    15:00Ясно и безоблачно+26°C36 %761 мм5.2 м/с2 %
    18:00Ясно и безоблачно+24°C41 %760 мм3.2 м/с2 %
    21:00Ясно и безоблачно+21°C53 %761 мм2.8 м/с2 %
  • 24мая
    Пятница
    +15°
    +26°
    Ясно и безоблачно
    ВремяПогодаТемператураВлажностьДавлениеВетер, м/сВероятность осадков
    00:00Практически безоблачно+20°C52 %761 мм5.7 м/с2 %
    03:00Практически безоблачно+18°C54 %761 мм5.8 м/с2 %
    06:00Ясно и безоблачно+17°C66 %762 мм7.1 м/с2 %
    09:00Ясно и безоблачно+21°C65 %763 мм7.1 м/с2 %
    12:00Ясно и безоблачно+24°C51 %763 мм8.2 м/с2 %
    15:00Ясно и безоблачно+25°C44 %763 мм8.1 м/с2 %
    18:00Ясно и безоблачно+22°C45 %762 мм6.2 м/с2 %
    21:00Ясно и безоблачно+19°C47 %763 мм6.6 м/с2 %
Мы используем cookies
Соглашаюсь